Time;durP1;ratioP1;P1;durP2;ratioP2;P2;SDS_P1;SDS_P2;PMS_P1;PMS_P2;Temp;Humidity;BMP_temperature;BMP_pressure;BME280_temperature;BME280_humidity;BME280_pressure;Samples;Min_cycle;Max_cycle;Signal;HPM_P1;HPM_P2
2022/08/10 00:02:14;;;;;;;2.33;1.38;;;23.00;57.40;;;;;;10497623;28;20028;-49
2022/08/10 00:07:15;;;;;;;1.63;0.93;;;23.00;57.30;;;;;;10532053;28;20076;-50
2022/08/10 00:12:18;;;;;;;1.60;0.90;;;22.90;57.30;;;;;;10532047;28;20618;-46
2022/08/10 00:17:18;;;;;;;2.08;0.98;;;22.90;57.30;;;;;;10531935;28;20107;-48
2022/08/10 00:22:19;;;;;;;1.48;0.80;;;22.90;57.30;;;;;;10532284;28;20115;-52
2022/08/10 00:27:20;;;;;;;1.38;1.27;;;22.90;57.30;;;;;;10533573;28;20517;-48
2022/08/10 00:32:21;;;;;;;1.00;0.77;;;22.90;57.30;;;;;;10538314;28;20040;-48
2022/08/10 00:37:21;;;;;;;1.10;1.00;;;22.90;57.30;;;;;;10521293;28;20028;-50
2022/08/10 00:42:22;;;;;;;1.35;0.82;;;22.90;57.30;;;;;;10539701;28;20041;-48
2022/08/10 00:47:23;;;;;;;2.45;0.88;;;22.90;57.30;;;;;;10538982;28;20036;-50
2022/08/10 00:52:26;;;;;;;2.03;1.48;;;22.90;57.30;;;;;;10520962;28;20024;-48
2022/08/10 00:57:27;;;;;;;1.33;0.90;;;22.90;57.30;;;;;;10538119;28;20025;-49
2022/08/10 01:02:30;;;;;;;1.63;1.25;;;22.90;57.30;;;;;;10520500;28;20028;-49
2022/08/10 01:08:19;;;;;;;0.98;0.80;;;22.90;57.30;;;;;;10519954;28;20028;-46
2022/08/10 01:13:49;;;;;;;1.63;1.27;;;22.90;57.40;;;;;;10522221;28;20028;-49
2022/08/10 01:19:24;;;;;;;1.30;0.88;;;22.90;57.40;;;;;;10521592;28;20032;-51
2022/08/10 01:24:58;;;;;;;1.15;0.82;;;22.90;57.30;;;;;;10499188;28;20600;-48
2022/08/10 01:30:03;;;;;;;2.42;0.88;;;22.90;57.30;;;;;;10523509;28;20028;-47
2022/08/10 01:35:36;;;;;;;1.70;1.13;;;22.90;57.40;;;;;;10519322;28;20042;-48
2022/08/10 01:40:55;;;;;;;1.40;0.80;;;22.90;57.30;;;;;;10536495;28;20048;-49
2022/08/10 01:45:58;;;;;;;1.83;1.33;;;22.90;57.30;;;;;;10518953;28;20051;-51
2022/08/10 01:51:21;;;;;;;0.95;0.73;;;22.90;57.30;;;;;;10518371;28;20109;-49
2022/08/10 01:56:26;;;;;;;1.35;1.05;;;22.80;57.20;;;;;;10518060;28;20028;-51
2022/08/10 02:01:39;;;;;;;2.45;1.13;;;22.80;57.30;;;;;;10535981;28;20036;-49
2022/08/10 02:06:47;;;;;;;1.77;0.93;;;22.90;57.20;;;;;;10518093;28;20064;-52
2022/08/10 02:11:50;;;;;;;1.17;0.95;;;22.80;57.20;;;;;;10535386;28;20036;-50
2022/08/10 02:16:52;;;;;;;1.17;0.75;;;22.90;57.30;;;;;;10535533;28;20107;-52
2022/08/10 02:21:54;;;;;;;1.08;0.80;;;22.80;57.30;;;;;;10516983;28;20122;-47
2022/08/10 02:26:55;;;;;;;1.77;1.00;;;22.80;57.30;;;;;;10535259;28;20020;-48
2022/08/10 02:31:56;;;;;;;1.25;1.00;;;22.80;57.20;;;;;;10516773;28;20115;-47
2022/08/10 02:36:59;;;;;;;1.10;0.80;;;22.80;57.20;;;;;;10516612;28;20047;-49
2022/08/10 02:42:03;;;;;;;1.08;0.98;;;22.80;57.20;;;;;;10499144;28;20044;-46
2022/08/10 02:47:44;;;;;;;1.20;1.00;;;22.80;57.20;;;;;;10516202;28;20020;-48
2022/08/10 02:53:13;;;;;;;1.00;0.88;;;22.80;57.30;;;;;;10530085;28;20054;-50
2022/08/10 02:58:29;;;;;;;1.52;1.10;;;22.80;57.20;;;;;;10518849;28;20040;-47
2022/08/10 03:03:37;;;;;;;1.45;0.90;;;22.80;57.20;;;;;;10516557;28;20035;-49
2022/08/10 03:08:42;;;;;;;1.50;1.23;;;22.80;57.30;;;;;;10515949;28;20024;-50
2022/08/10 03:13:44;;;;;;;1.00;0.90;;;22.80;57.30;;;;;;10532943;28;20115;-50
2022/08/10 03:18:47;;;;;;;1.20;1.10;;;22.80;57.30;;;;;;10533341;28;20032;-54
2022/08/10 03:23:50;;;;;;;3.67;1.20;;;22.80;57.30;;;;;;10532743;28;20039;-50
2022/08/10 03:28:51;;;;;;;2.00;1.05;;;22.80;57.30;;;;;;10498191;28;20036;-46
2022/08/10 03:33:53;;;;;;;1.33;1.00;;;22.80;57.30;;;;;;10514733;28;20032;-50
2022/08/10 03:38:54;;;;;;;1.80;1.02;;;22.80;57.30;;;;;;10514820;28;20060;-49
2022/08/10 03:43:55;;;;;;;2.25;1.50;;;22.80;57.30;;;;;;10532776;28;20048;-49
2022/08/10 03:49:02;;;;;;;1.10;0.77;;;22.70;57.30;;;;;;10513999;28;20043;-51
2022/08/10 03:54:03;;;;;;;1.33;0.98;;;22.80;57.30;;;;;;10529944;28;20054;-48
2022/08/10 03:59:08;;;;;;;1.20;0.90;;;22.70;57.30;;;;;;10513718;28;20411;-47
2022/08/10 04:04:10;;;;;;;1.70;1.27;;;22.70;57.30;;;;;;10508915;28;20016;-50
2022/08/10 04:09:11;;;;;;;0.93;0.80;;;22.70;57.30;;;;;;10518926;28;20027;-50
2022/08/10 04:14:11;;;;;;;1.50;1.10;;;22.70;57.30;;;;;;10538441;28;20024;-47
2022/08/10 04:19:17;;;;;;;1.10;1.00;;;22.70;57.30;;;;;;10539809;28;20066;-49
2022/08/10 04:24:21;;;;;;;1.15;0.82;;;22.70;57.30;;;;;;10516961;28;20029;-46
2022/08/10 04:29:22;;;;;;;0.95;0.75;;;22.70;57.30;;;;;;10520969;28;20041;-46
2022/08/10 04:34:26;;;;;;;1.55;1.30;;;22.70;58.00;;;;;;10532095;28;20410;-50
2022/08/10 04:39:27;;;;;;;1.80;1.00;;;22.70;57.40;;;;;;10504371;28;20135;-49
2022/08/10 04:44:28;;;;;;;1.80;0.95;;;22.70;57.40;;;;;;10520740;28;20028;-50
2022/08/10 04:49:28;;;;;;;1.52;1.10;;;22.70;57.40;;;;;;10503625;28;20051;-47
2022/08/10 04:54:29;;;;;;;1.60;1.15;;;22.70;57.40;;;;;;10538401;28;20077;-49
2022/08/10 04:59:30;;;;;;;1.33;0.85;;;22.70;57.50;;;;;;10511617;28;20036;-47
2022/08/10 05:04:30;;;;;;;1.02;0.70;;;22.70;57.50;;;;;;10541717;28;20157;-52
2022/08/10 05:09:31;;;;;;;1.98;1.20;;;22.60;57.50;;;;;;10522928;28;20047;-51
2022/08/10 05:14:32;;;;;;;6.30;1.80;;;22.60;57.40;;;;;;10540932;28;20100;-52
2022/08/10 05:19:33;;;;;;;6.95;1.42;;;22.70;58.10;;;;;;10541145;28;20395;-49
2022/08/10 05:24:34;;;;;;;9.05;1.63;;;22.80;58.30;;;;;;10540791;28;20043;-53
2022/08/10 05:29:35;;;;;;;6.63;1.38;;;22.90;58.70;;;;;;10528468;28;20539;-48
2022/08/10 05:34:35;;;;;;;11.15;2.13;;;22.90;58.70;;;;;;10540180;28;20110;-55
2022/08/10 05:39:38;;;;;;;15.48;2.50;;;22.90;59.30;;;;;;10521674;28;20087;-54
2022/08/10 05:44:39;;;;;;;6.05;2.10;;;22.90;60.10;;;;;;10522271;28;20040;-53
2022/08/10 05:49:40;;;;;;;5.47;2.22;;;22.80;59.50;;;;;;10539745;28;20067;-52
2022/08/10 05:54:41;;;;;;;7.38;2.15;;;22.90;59.10;;;;;;10494243;28;20121;-53
2022/08/10 06:00:06;;;;;;;9.02;2.03;;;22.90;59.40;;;;;;10521102;28;20115;-52
2022/08/10 06:05:18;;;;;;;7.70;1.75;;;22.80;59.70;;;;;;10539171;28;20515;-53
2022/08/10 06:10:21;;;;;;;9.85;2.13;;;22.80;59.80;;;;;;10538865;28;20040;-54
2022/08/10 06:15:23;;;;;;;5.57;2.28;;;22.90;59.90;;;;;;10520518;28;20028;-54
2022/08/10 06:20:24;;;;;;;7.50;2.08;;;22.90;60.00;;;;;;10511102;28;20360;-53
2022/08/10 06:25:29;;;;;;;7.05;1.90;;;23.00;60.00;;;;;;10498311;28;20055;-53
2022/08/10 06:30:32;;;;;;;8.18;2.00;;;23.10;60.30;;;;;;10512577;28;20111;-53
2022/08/10 06:35:35;;;;;;;7.75;3.85;;;23.00;59.80;;;;;;10514666;28;20110;-52
2022/08/10 06:40:41;;;;;;;8.07;3.10;;;23.00;59.80;;;;;;10514645;28;20044;-52
2022/08/10 06:45:58;;;;;;;7.05;3.53;;;23.00;59.70;;;;;;10515523;28;20035;-53
2022/08/10 06:51:05;;;;;;;10.73;4.28;;;23.00;59.80;;;;;;10515663;28;20032;-50
2022/08/10 06:56:13;;;;;;;9.55;4.18;;;23.00;59.70;;;;;;10515837;28;20379;-52
2022/08/10 07:01:19;;;;;;;10.40;4.03;;;23.00;59.70;;;;;;10501581;28;20055;-54
2022/08/10 07:06:20;;;;;;;7.25;3.85;;;23.00;59.40;;;;;;10515251;28;20107;-54
2022/08/10 07:11:23;;;;;;;7.72;3.63;;;23.00;59.60;;;;;;10514490;28;20384;-52
2022/08/10 07:16:27;;;;;;;8.98;4.15;;;23.00;59.10;;;;;;10513610;28;20063;-53
2022/08/10 07:21:29;;;;;;;6.85;3.40;;;23.00;59.10;;;;;;10514547;28;20036;-54
2022/08/10 07:26:31;;;;;;;9.10;3.55;;;23.10;59.30;;;;;;10532278;28;20046;-52
2022/08/10 07:31:32;;;;;;;8.20;2.90;;;23.10;59.00;;;;;;10514429;28;20028;-53
2022/08/10 07:36:35;;;;;;;6.75;3.20;;;23.00;59.20;;;;;;10513900;28;20035;-53
2022/08/10 07:41:41;;;;;;;6.07;2.85;;;23.00;59.10;;;;;;10497138;28;20040;-50
2022/08/10 07:46:48;;;;;;;7.95;2.88;;;22.90;58.60;;;;;;10513010;28;20042;-52
2022/08/10 07:51:52;;;;;;;4.43;2.72;;;22.90;58.30;;;;;;10513432;28;20039;-52
2022/08/10 07:57:00;;;;;;;5.03;2.78;;;23.00;58.30;;;;;;10496938;28;20555;-53
2022/08/10 08:02:04;;;;;;;6.28;3.00;;;22.90;58.00;;;;;;10513267;28;20032;-53
2022/08/10 08:07:07;;;;;;;3.22;2.08;;;22.90;58.10;;;;;;10513589;28;20035;-53
2022/08/10 08:12:09;;;;;;;4.00;2.85;;;22.90;58.20;;;;;;10529230;28;20845;-53
2022/08/10 08:17:14;;;;;;;5.05;2.72;;;23.00;58.30;;;;;;10510964;28;20020;-51
2022/08/10 08:22:17;;;;;;;3.75;2.20;;;23.00;58.30;;;;;;10489025;28;20027;-53
2022/08/10 08:27:19;;;;;;;3.90;2.00;;;23.00;58.30;;;;;;10512143;28;20036;-54
2022/08/10 08:32:24;;;;;;;3.80;2.40;;;23.00;58.30;;;;;;10512663;28;20383;-53
2022/08/10 08:37:27;;;;;;;7.72;3.03;;;23.00;58.30;;;;;;10512968;28;20151;-53
2022/08/10 08:43:05;;;;;;;3.08;2.10;;;23.00;58.40;;;;;;10513149;28;20020;-52
2022/08/10 08:48:57;;;;;;;4.60;2.55;;;23.00;58.40;;;;;;10532380;28;20550;-52
2022/08/10 08:54:14;;;;;;;4.90;2.38;;;23.00;58.40;;;;;;10538014;28;20062;-52
2022/08/10 08:59:59;;;;;;;3.22;2.20;;;23.00;58.30;;;;;;10537862;28;20032;-53
2022/08/10 09:05:12;;;;;;;3.33;1.90;;;23.00;58.30;;;;;;10536400;28;20028;-52
2022/08/10 09:10:32;;;;;;;5.57;1.80;;;23.10;58.40;;;;;;10537314;28;20016;-53
2022/08/10 09:15:53;;;;;;;3.17;2.08;;;23.10;58.30;;;;;;10536451;28;20027;-54
2022/08/10 09:21:18;;;;;;;3.60;2.05;;;23.10;58.30;;;;;;10495981;28;20402;-53
2022/08/10 09:26:34;;;;;;;5.40;2.60;;;23.10;58.30;;;;;;10518443;28;20031;-52
2022/08/10 09:31:50;;;;;;;3.90;1.92;;;23.10;58.30;;;;;;10517773;28;20066;-53
2022/08/10 09:37:58;;;;;;;3.72;2.05;;;23.10;58.10;;;;;;10519139;28;20455;-53
2022/08/10 09:43:15;;;;;;;2.88;1.63;;;23.10;58.10;;;;;;10527285;28;20048;-53
2022/08/10 09:49:02;;;;;;;3.58;2.00;;;23.10;58.10;;;;;;10518539;28;20056;-53
2022/08/10 09:54:03;;;;;;;3.75;2.00;;;23.20;58.10;;;;;;10520361;28;20039;-54
2022/08/10 09:59:21;;;;;;;3.08;1.90;;;23.10;58.00;;;;;;10527012;28;20032;-51
2022/08/10 10:05:01;;;;;;;2.65;1.88;;;23.10;58.00;;;;;;10533459;28;20137;-53
2022/08/10 10:10:15;;;;;;;1.92;1.75;;;23.20;58.10;;;;;;10518741;28;20543;-53
2022/08/10 10:15:43;;;;;;;3.70;1.70;;;23.20;57.90;;;;;;10516088;28;20073;-52
2022/08/10 10:21:00;;;;;;;2.90;2.15;;;23.20;57.60;;;;;;10534764;28;20039;-53
2022/08/10 10:26:39;;;;;;;2.58;1.67;;;23.20;57.80;;;;;;10517285;28;20036;-53
2022/08/10 10:32:26;;;;;;;2.88;1.70;;;23.30;57.80;;;;;;10514868;28;20035;-53
2022/08/10 10:37:30;;;;;;;2.53;1.95;;;23.30;57.80;;;;;;10516020;28;20060;-53
2022/08/10 10:42:49;;;;;;;2.45;1.27;;;23.30;57.70;;;;;;10513758;28;20081;-56
2022/08/10 10:48:12;;;;;;;3.40;1.80;;;23.30;57.70;;;;;;10508831;28;20030;-54
2022/08/10 10:53:38;;;;;;;7.30;2.10;;;23.30;57.70;;;;;;10530929;28;20269;-55
2022/08/10 10:59:29;;;;;;;7.18;2.42;;;23.40;57.90;;;;;;10510259;28;20035;-55
2022/08/10 11:04:44;;;;;;;6.88;1.95;;;23.40;58.00;;;;;;10526343;28;20047;-54
2022/08/10 11:10:00;;;;;;;5.70;2.30;;;23.40;58.30;;;;;;10515310;28;20035;-55
2022/08/10 11:15:08;;;;;;;4.07;2.22;;;23.40;58.50;;;;;;10513808;28;20540;-53
2022/08/10 11:20:36;;;;;;;5.73;2.47;;;23.50;59.00;;;;;;10531130;28;20043;-54
2022/08/10 11:25:43;;;;;;;6.80;2.28;;;23.50;59.00;;;;;;10514910;28;20028;-53
2022/08/10 11:31:07;;;;;;;4.63;2.08;;;23.50;58.90;;;;;;10512799;28;20032;-53
2022/08/10 11:36:24;;;;;;;28.52;3.60;;;23.60;59.30;;;;;;10515055;28;20043;-54
2022/08/10 11:41:51;;;;;;;14.68;2.92;;;23.60;59.50;;;;;;10514945;28;20047;-53
2022/08/10 11:47:01;;;;;;;20.75;3.65;;;23.70;59.10;;;;;;10530502;28;20054;-54
2022/08/10 11:52:44;;;;;;;15.63;3.40;;;23.70;59.10;;;;;;10494642;28;20036;-54
2022/08/10 11:57:48;;;;;;;13.90;3.03;;;23.70;58.70;;;;;;10514972;28;20036;-52
2022/08/10 12:03:02;;;;;;;17.42;3.03;;;23.70;58.50;;;;;;10488538;28;20363;-52
2022/08/10 12:08:03;;;;;;;16.17;3.05;;;23.70;58.50;;;;;;10502195;28;20044;-51
2022/08/10 12:13:15;;;;;;;7.20;2.97;;;23.70;58.30;;;;;;10531645;28;20020;-52
2022/08/10 12:18:37;;;;;;;11.75;3.08;;;23.70;57.90;;;;;;10513923;28;20035;-50
2022/08/10 12:23:58;;;;;;;13.40;2.75;;;23.80;57.80;;;;;;10516777;28;20035;-52
2022/08/10 12:29:16;;;;;;;15.73;3.45;;;23.80;57.40;;;;;;10539633;28;20075;-52
2022/08/10 12:34:43;;;;;;;15.02;3.50;;;23.80;57.70;;;;;;10520612;28;20021;-51
2022/08/10 12:40:08;;;;;;;11.52;2.58;;;23.80;56.90;;;;;;10537536;28;20094;-52
2022/08/10 12:45:31;;;;;;;9.60;2.80;;;23.80;56.50;;;;;;10539250;28;20434;-52
2022/08/10 12:50:38;;;;;;;7.95;2.05;;;23.80;56.90;;;;;;10521454;28;20068;-52
2022/08/10 12:55:40;;;;;;;7.45;2.03;;;23.80;56.70;;;;;;10539163;28;20467;-51
2022/08/10 13:00:42;;;;;;;5.30;2.10;;;23.80;56.20;;;;;;10519460;28;20036;-53
2022/08/10 13:05:43;;;;;;;6.10;1.88;;;23.80;55.90;;;;;;10518921;28;20039;-51
2022/08/10 13:10:55;;;;;;;10.70;2.15;;;23.80;55.90;;;;;;10537561;28;20070;-53
2022/08/10 13:15:57;;;;;;;5.53;1.83;;;23.90;55.60;;;;;;10520894;28;20047;-52
2022/08/10 13:21:07;;;;;;;4.57;1.90;;;23.90;55.40;;;;;;10519504;28;20052;-50
2022/08/10 13:26:16;;;;;;;5.15;2.03;;;23.90;55.10;;;;;;10537278;28;20036;-53
2022/08/10 13:31:31;;;;;;;3.33;1.83;;;23.90;54.70;;;;;;10517577;28;20123;-53
2022/08/10 13:36:39;;;;;;;4.40;1.52;;;23.90;54.80;;;;;;10518933;28;20039;-52
2022/08/10 13:41:42;;;;;;;4.07;1.83;;;23.90;54.40;;;;;;10518490;28;20043;-53
2022/08/10 13:46:52;;;;;;;4.75;1.92;;;23.90;54.60;;;;;;10517516;28;20509;-51
2022/08/10 13:51:55;;;;;;;5.40;1.48;;;23.90;54.50;;;;;;10500635;28;20020;-52
2022/08/10 13:56:57;;;;;;;4.00;1.60;;;23.90;54.60;;;;;;10500885;28;20047;-51
2022/08/10 14:02:01;;;;;;;3.78;1.92;;;23.90;54.40;;;;;;10523493;28;20731;-53
2022/08/10 14:07:03;;;;;;;4.70;2.00;;;23.90;53.70;;;;;;10514946;28;20028;-49
2022/08/10 14:12:05;;;;;;;4.45;1.83;;;23.90;54.30;;;;;;10516922;28;20024;-51
2022/08/10 14:17:06;;;;;;;3.03;1.70;;;23.90;54.00;;;;;;10516538;28;20032;-52
2022/08/10 14:22:07;;;;;;;4.78;1.60;;;23.90;53.50;;;;;;10515363;28;20032;-52
2022/08/10 14:27:12;;;;;;;4.57;2.05;;;23.90;54.20;;;;;;10515834;28;20395;-52
2022/08/10 14:32:17;;;;;;;5.18;1.85;;;23.80;53.80;;;;;;10532547;28;20042;-51
2022/08/10 14:37:35;;;;;;;3.38;1.58;;;23.80;53.80;;;;;;10515148;28;20020;-53
2022/08/10 14:42:45;;;;;;;2.63;1.73;;;23.80;54.00;;;;;;10516383;28;20043;-51
2022/08/10 14:47:50;;;;;;;3.47;1.88;;;23.80;53.80;;;;;;10516207;28;20517;-52
2022/08/10 14:52:51;;;;;;;3.70;1.80;;;23.80;53.80;;;;;;10516478;28;20032;-51
2022/08/10 14:57:53;;;;;;;5.05;1.92;;;23.80;53.30;;;;;;10499428;28;20112;-51
2022/08/10 15:02:55;;;;;;;2.40;1.58;;;23.90;52.30;;;;;;10515901;28;20032;-52
2022/08/10 15:07:57;;;;;;;4.65;1.98;;;23.90;52.40;;;;;;10498875;28;20028;-53
2022/08/10 15:12:58;;;;;;;3.38;1.58;;;23.90;50.20;;;;;;10532828;28;20034;-54
2022/08/10 15:18:00;;;;;;;3.88;1.92;;;24.10;46.80;;;;;;10515208;28;20024;-52
2022/08/10 15:23:11;;;;;;;9.60;3.65;;;24.20;46.40;;;;;;10512716;28;20036;-52
2022/08/10 15:28:15;;;;;;;22.77;16.67;;;24.20;48.20;;;;;;10514858;28;20036;-53
2022/08/10 15:38:46;;;;;;;;;;;24.50;48.20;;;;;;10532622;28;20072;-53
2022/08/10 15:43:47;;;;;;;13.38;6.95;;;24.60;47.50;;;;;;10514572;28;20019;-53
2022/08/10 15:48:59;;;;;;;14.02;6.22;;;24.80;48.20;;;;;;10513953;28;20046;-53
2022/08/10 15:54:08;;;;;;;13.52;5.82;;;24.80;49.00;;;;;;10514727;28;20024;-54
2022/08/10 15:59:33;;;;;;;11.13;5.30;;;24.80;50.00;;;;;;10517697;28;20040;-54
2022/08/10 16:04:56;;;;;;;7.22;4.47;;;24.80;49.40;;;;;;10516902;28;20036;-53
2022/08/10 16:10:07;;;;;;;8.88;4.75;;;24.80;48.80;;;;;;10515869;28;20410;-52
2022/08/10 16:15:17;;;;;;;6.15;4.00;;;24.60;49.30;;;;;;10524006;28;20035;-52
2022/08/10 16:20:31;;;;;;;5.68;3.65;;;24.50;48.30;;;;;;10521817;28;20462;-53
2022/08/10 16:25:32;;;;;;;6.38;3.65;;;24.50;47.80;;;;;;10521521;28;20059;-53
2022/08/10 16:30:40;;;;;;;4.32;3.10;;;24.40;47.40;;;;;;10513973;28;20024;-53
2022/08/10 16:35:42;;;;;;;4.40;2.30;;;24.40;46.90;;;;;;10521133;28;20032;-52
2022/08/10 16:40:45;;;;;;;7.68;2.70;;;24.40;47.00;;;;;;10520288;28;20047;-53
2022/08/10 16:45:49;;;;;;;15.65;4.80;;;24.30;47.70;;;;;;10521063;28;20063;-51
2022/08/10 16:50:56;;;;;;;4.75;2.47;;;24.40;46.90;;;;;;10538798;28;20032;-51
2022/08/10 16:56:02;;;;;;;3.67;2.15;;;24.40;48.50;;;;;;10532145;28;20554;-53
2022/08/10 17:01:14;;;;;;;5.32;2.70;;;24.50;49.00;;;;;;10496897;28;20042;-51
2022/08/10 17:06:32;;;;;;;4.88;2.30;;;24.40;47.60;;;;;;10519573;28;20040;-47
2022/08/10 17:11:38;;;;;;;6.53;2.30;;;24.40;47.20;;;;;;10520634;28;20036;-51
2022/08/10 17:16:50;;;;;;;8.98;2.70;;;24.30;48.20;;;;;;10537834;28;20024;-52
2022/08/10 17:22:01;;;;;;;7.65;2.67;;;24.40;49.40;;;;;;10520002;28;20024;-55
2022/08/10 17:27:07;;;;;;;5.47;2.35;;;24.30;47.70;;;;;;10536345;28;20477;-53
2022/08/10 17:32:34;;;;;;;3.88;2.10;;;24.40;47.70;;;;;;10519132;28;20062;-53
2022/08/10 17:37:43;;;;;;;3.50;2.03;;;24.30;47.30;;;;;;10532310;28;20123;-53
2022/08/10 17:42:47;;;;;;;2.78;1.77;;;24.30;47.30;;;;;;10511826;28;20036;-53
2022/08/10 17:47:50;;;;;;;7.43;1.90;;;24.30;46.20;;;;;;10514273;28;20064;-53
2022/08/10 17:53:06;;;;;;;4.00;1.88;;;24.30;46.20;;;;;;10511920;28;20038;-52
2022/08/10 17:58:13;;;;;;;4.18;1.90;;;24.30;46.70;;;;;;10534022;28;20092;-52
2022/08/10 18:03:25;;;;;;;4.85;2.00;;;24.30;45.90;;;;;;10535168;28;20551;-52
2022/08/10 18:08:34;;;;;;;3.45;1.80;;;24.30;45.60;;;;;;10500215;28;20790;-53
2022/08/10 18:13:36;;;;;;;4.90;1.73;;;24.30;46.00;;;;;;10535312;28;20028;-53
2022/08/10 18:18:39;;;;;;;4.57;1.80;;;24.30;46.00;;;;;;10515706;28;20035;-53
2022/08/10 18:23:42;;;;;;;3.47;1.80;;;24.30;46.60;;;;;;10515701;28;20028;-52
2022/08/10 18:28:49;;;;;;;2.67;1.50;;;24.30;46.70;;;;;;10508909;28;20027;-52
2022/08/10 18:33:54;;;;;;;3.20;1.60;;;24.30;47.30;;;;;;10534492;28;20031;-51
2022/08/10 18:38:58;;;;;;;2.25;1.52;;;24.30;46.70;;;;;;10515845;28;20052;-52
2022/08/10 18:44:14;;;;;;;3.97;1.88;;;24.20;46.40;;;;;;10515606;28;20114;-51
2022/08/10 18:49:30;;;;;;;2.45;1.80;;;24.30;46.40;;;;;;10515674;28;20032;-51
2022/08/10 18:54:40;;;;;;;2.55;1.40;;;24.20;47.00;;;;;;10516039;28;20024;-52
2022/08/10 19:00:12;;;;;;;2.58;1.40;;;24.30;46.60;;;;;;10516583;28;20066;-53
2022/08/10 19:06:11;;;;;;;3.38;1.70;;;24.20;47.70;;;;;;10525908;28;20115;-52
2022/08/10 19:11:39;;;;;;;3.85;1.58;;;24.20;48.30;;;;;;10511501;28;20036;-50
2022/08/10 19:17:06;;;;;;;5.57;1.85;;;24.20;48.30;;;;;;10533365;28;20024;-52
2022/08/10 19:22:42;;;;;;;4.03;1.95;;;24.20;48.50;;;;;;10514752;28;20042;-52
2022/08/10 19:28:15;;;;;;;3.13;2.15;;;24.20;49.60;;;;;;10523788;28;20047;-53
2022/08/10 19:33:43;;;;;;;5.00;2.20;;;24.20;49.80;;;;;;10511580;28;20414;-52
2022/08/10 19:39:09;;;;;;;3.08;1.77;;;24.20;49.60;;;;;;10514463;28;20169;-53
2022/08/10 19:44:18;;;;;;;2.75;1.50;;;24.20;49.80;;;;;;10532492;28;20028;-53
2022/08/10 19:49:43;;;;;;;;;;;24.20;50.60;;;;;;10514286;28;20345;-53
2022/08/10 19:55:31;;;;;;;3.50;1.75;;;24.20;50.10;;;;;;10499998;28;19916;-52
2022/08/10 20:00:45;;;;;;;3.88;1.95;;;24.20;50.40;;;;;;10532449;28;20093;-53
2022/08/10 20:06:17;;;;;;;4.05;1.42;;;24.10;50.50;;;;;;10513373;28;20031;-52
2022/08/10 20:11:53;;;;;;;3.55;1.60;;;24.20;50.90;;;;;;10532120;28;20040;-53
2022/08/10 20:17:03;;;;;;;3.65;1.60;;;24.10;50.90;;;;;;10502463;28;20127;-53
2022/08/10 20:22:08;;;;;;;1.95;1.40;;;24.10;51.00;;;;;;10532043;28;20039;-53
2022/08/10 20:27:23;;;;;;;3.70;1.48;;;24.10;51.80;;;;;;10506222;28;20106;-53
2022/08/10 20:32:31;;;;;;;2.92;1.50;;;24.10;51.40;;;;;;10514807;28;20498;-52
2022/08/10 20:37:44;;;;;;;2.57;1.40;;;24.10;51.50;;;;;;10531116;28;20123;-54
2022/08/10 20:43:33;;;;;;;3.63;1.77;;;24.10;51.60;;;;;;10514129;28;20028;-52
2022/08/10 20:48:52;;;;;;;3.17;1.63;;;24.10;51.60;;;;;;10497176;28;20494;-52
2022/08/10 20:53:57;;;;;;;;;;;24.10;51.60;;;;;;10522605;28;20024;-53
2022/08/10 20:59:28;;;;;;;1.85;1.25;;;24.10;51.80;;;;;;10538379;28;19969;-52
2022/08/10 21:05:28;;;;;;;2.17;1.13;;;24.10;51.80;;;;;;10538523;28;20035;-52
2022/08/10 21:10:54;;;;;;;;;;;24.10;51.90;;;;;;10537970;28;20032;-53
2022/08/10 21:16:27;;;;;;;3.28;1.58;;;24.10;51.90;;;;;;10524432;28;19908;-53
2022/08/10 21:21:49;;;;;;;2.97;1.60;;;24.00;52.10;;;;;;10513194;28;20107;-53
2022/08/10 22:51:45;;;;;;;;;;;24.00;52.70;;;;;;10520703;28;20048;-53
2022/08/10 23:02:14;;;;;;;2.10;1.63;;;24.00;52.90;;;;;;10534009;28;20036;-53
2022/08/10 23:07:25;;;;;;;2.70;1.65;;;23.90;52.90;;;;;;10515211;28;20467;-54
2022/08/10 23:12:49;;;;;;;2.17;1.52;;;24.00;53.50;;;;;;10515927;28;20020;-53
2022/08/10 23:23:21;;;;;;;3.97;1.50;;;24.00;52.90;;;;;;10517941;28;20032;-52
2022/08/10 23:28:23;;;;;;;4.00;1.50;;;23.90;52.90;;;;;;10514802;28;20059;-53
2022/08/10 23:33:29;;;;;;;3.00;1.83;;;23.90;53.00;;;;;;10515026;28;20070;-53
2022/08/10 23:38:32;;;;;;;2.50;1.35;;;23.90;53.20;;;;;;10532475;28;20475;-51
2022/08/10 23:43:39;;;;;;;2.25;1.40;;;24.00;53.30;;;;;;10514769;28;20024;-53
2022/08/10 23:48:45;;;;;;;1.75;1.30;;;23.90;53.20;;;;;;10514119;28;20024;-51
2022/08/10 23:53:47;;;;;;;1.63;1.48;;;23.90;53.20;;;;;;10531739;28;20367;-52
2022/08/10 23:58:54;;;;;;;3.40;1.98;;;23.90;53.20;;;;;;10531432;28;20092;-54
